Time;durP1;ratioP1;P1;durP2;ratioP2;P2;SDS_P1;SDS_P2;PMS_P1;PMS_P2;Temp;Humidity;BMP_temperature;BMP_pressure;BME280_temperature;BME280_humidity;BME280_pressure;Samples;Min_cycle;Max_cycle;Signal;HPM_P1;HPM_P2
2020/11/15 00:09:42;;;;;;;76.5;65;;;;;;;5.52;86.96875;99267.67;;;;
2020/11/15 00:19:40;;;;;;;84.7;64.5;;;;;;;5.64;86.10254;99259.47;;;;
2020/11/15 00:29:38;;;;;;;76;57.9;;;;;;;5.64;84.54492;99258.66;;;;
2020/11/15 00:39:37;;;;;;;62.4;46.9;;;;;;;5.33;83.33789;99269.16;;;;
2020/11/15 00:49:34;;;;;;;52.3;46.6;;;;;;;5.21;82.94727;99270.38;;;;
2020/11/15 00:59:32;;;;;;;58.7;47.6;;;;;;;4.86;85.69238;99258.34;;;;
2020/11/15 01:09:30;;;;;;;73.7;51.6;;;;;;;4.61;83.4668;99252.8;;;;
2020/11/15 01:19:28;;;;;;;60.9;54.2;;;;;;;4.68;88.23145;99248.05;;;;
2020/11/15 01:29:26;;;;;;;66.8;53;;;;;;;4.86;88.94434;99226.3;;;;
2020/11/15 01:39:24;;;;;;;64.4;47.4;;;;;;;5.04;87.77148;99233.13;;;;
2020/11/15 01:49:22;;;;;;;60.1;48.9;;;;;;;5.13;87.29004;99231.61;;;;
2020/11/15 01:59:20;;;;;;;111.9;82.2;;;;;;;4.95;82.96777;99230.13;;;;
2020/11/15 02:09:24;;;;;;;74.7;64.8;;;;;;;4.58;82.01758;99234.61;;;;
2020/11/15 02:19:16;;;;;;;73;61.9;;;;;;;4.25;83.94141;99218.78;;;;
2020/11/15 02:29:13;;;;;;;62.2;50.3;;;;;;;4.3;87.36621;99208.17;;;;
2020/11/15 02:39:11;;;;;;;54.8;44.2;;;;;;;4.25;87.40137;99216.92;;;;
2020/11/15 02:49:09;;;;;;;49.2;44.3;;;;;;;4.25;88.35352;99205.44;;;;
2020/11/15 02:59:07;;;;;;;55.1;45.8;;;;;;;4.18;88.31738;99208.31;;;;
2020/11/15 03:09:05;;;;;;;58.6;42.7;;;;;;;4.3;88.96191;99210.84;;;;
2020/11/15 03:19:03;;;;;;;56.2;39.4;;;;;;;4.38;88.40137;99205.03;;;;
2020/11/15 03:29:00;;;;;;;43.4;35.2;;;;;;;4.36;88.83984;99199.16;;;;
2020/11/15 03:38:58;;;;;;;49.6;37.4;;;;;;;4.28;89.06836;99200.41;;;;
2020/11/15 03:48:56;;;;;;;35.7;31.9;;;;;;;4.25;88.91895;99208.11;;;;
2020/11/15 03:58:54;;;;;;;31.5;28.2;;;;;;;3.98;83.86719;99190.23;;;;
2020/11/15 04:08:52;;;;;;;40.3;30.4;;;;;;;3.72;86.50879;99198.97;;;;
2020/11/15 04:18:50;;;;;;;35;26.5;;;;;;;3.57;86.22168;99196.13;;;;
2020/11/15 04:28:48;;;;;;;31.6;28.3;;;;;;;3.31;85.73828;99188.83;;;;
2020/11/15 04:38:45;;;;;;;31;26;;;;;;;3.18;87.66992;99192.66;;;;
2020/11/15 04:48:43;;;;;;;33.9;25.3;;;;;;;3.25;87.83984;99198.63;;;;
2020/11/15 04:58:41;;;;;;;33.1;28.6;;;;;;;2.96;87.60449;99208.56;;;;
2020/11/15 05:08:38;;;;;;;38.2;30.8;;;;;;;2.76;88.6123;99200.27;;;;
2020/11/15 05:18:41;;;;;;;70.9;60.9;;;;;;;2.62;88.65039;99214.93;;;;
2020/11/15 05:28:34;;;;;;;35.6;28.9;;;;;;;2.73;89.84082;99216.72;;;;
2020/11/15 05:38:31;;;;;;;39.5;29.4;;;;;;;2.86;90.3877;99216.39;;;;
2020/11/15 05:48:29;;;;;;;44.8;31.9;;;;;;;3.05;90.09766;99223.07;;;;
2020/11/15 05:58:29;;;;;;;45.5;34.3;;;;;;;3.37;90.78125;99225.14;;;;
2020/11/15 06:08:26;;;;;;;39.9;31.4;;;;;;;3.62;89.42969;99227.34;;;;
2020/11/15 06:18:22;;;;;;;35.5;28.3;;;;;;;3.9;88.16113;99233.33;;;;
2020/11/15 06:28:19;;;;;;;33.5;26.5;;;;;;;3.86;82.76758;99242.87;;;;
2020/11/15 06:38:17;;;;;;;31.9;27.2;;;;;;;4.22;86.12988;99256.63;;;;
2020/11/15 06:48:15;;;;;;;35.5;29.1;;;;;;;5.25;79.24902;99247.44;;;;
2020/11/15 06:58:14;;;;;;;44.5;35.6;;;;;;;7.25;72.78516;99261.01;;;;
2020/11/15 07:08:13;;;;;;;47.6;34.2;;;;;;;9.44;67.74023;99255.13;;;;
2020/11/15 07:18:10;;;;;;;54.4;48.5;;;;;;;12.23;57.17676;99266.92;;;;
2020/11/15 07:28:08;;;;;;;57.7;43.4;;;;;;;12.61;55.56055;99262.06;;;;
2020/11/15 07:38:07;;;;;;;66.4;59.3;;;;;;;13.69;51.29102;99270.05;;;;
2020/11/15 07:48:07;;;;;;;57.4;52.1;;;;;;;16.12;46.47168;99272.27;;;;
2020/11/15 07:58:06;;;;;;;57.9;51.8;;;;;;;17.22;44.7373;99265.63;;;;
2020/11/15 08:08:05;;;;;;;43.1;37.9;;;;;;;19.38;39.29199;99271.45;;;;
2020/11/15 08:18:05;;;;;;;37;33.3;;;;;;;20.14;38.63477;99269.53;;;;
2020/11/15 08:28:06;;;;;;;31.8;27.2;;;;;;;20.66;37.17383;99266.48;;;;
2020/11/15 08:38:06;;;;;;;22.4;19.5;;;;;;;22.03;35.63672;99269.28;;;;
2020/11/15 08:48:07;;;;;;;21.7;15.8;;;;;;;22.69;33.2334;99251.48;;;;
2020/11/15 08:58:07;;;;;;;17.9;15.9;;;;;;;22.34;33.92383;99259.17;;;;
2020/11/15 09:08:07;;;;;;;25.6;19.5;;;;;;;19.9;37.76367;99254.09;;;;
2020/11/15 09:18:08;;;;;;;27;24.3;;;;;;;17.35;43.13086;99249.02;;;;
2020/11/15 09:28:07;;;;;;;24.3;19.5;;;;;;;20.06;37.48535;99230.27;;;;
2020/11/15 09:38:08;;;;;;;23.5;17.6;;;;;;;22.57;33.66016;99222.23;;;;
2020/11/15 09:48:08;;;;;;;17.1;14.5;;;;;;;23.47;32.48047;99214.73;;;;
2020/11/15 09:58:09;;;;;;;16.6;15;;;;;;;23.86;31.40039;99200.55;;;;
2020/11/15 10:08:10;;;;;;;18.4;14.8;;;;;;;23.85;31.50586;99198.96;;;;
2020/11/15 10:18:11;;;;;;;19.2;14.5;;;;;;;23.55;31.86133;99188.09;;;;
2020/11/15 10:28:12;;;;;;;18.5;16.1;;;;;;;24.38;31.99121;99171.84;;;;
2020/11/15 10:38:13;;;;;;;19;14.2;;;;;;;23.84;31.72852;99165.16;;;;
2020/11/15 10:48:14;;;;;;;16.7;14.9;;;;;;;23.94;32.69141;99147.92;;;;
2020/11/15 10:58:15;;;;;;;17;14.9;;;;;;;22.69;35.03125;99141.56;;;;
2020/11/15 11:08:16;;;;;;;14.6;13;;;;;;;22.28;36.82813;99142.56;;;;
2020/11/15 11:18:17;;;;;;;15.1;13.5;;;;;;;21.64;36.92871;99138.81;;;;
2020/11/15 11:28:17;;;;;;;15.1;13.5;;;;;;;21.59;36.52637;99128.93;;;;
2020/11/15 11:38:18;;;;;;;16.2;13.3;;;;;;;19.96;40.37988;99127.61;;;;
2020/11/15 11:48:19;;;;;;;21.9;13.9;;;;;;;19.39;41.8877;99114.5;;;;
2020/11/15 11:58:19;;;;;;;15.9;13.4;;;;;;;19.14;42.58496;99112.27;;;;
2020/11/15 12:08:19;;;;;;;18.1;15.6;;;;;;;18.67;43.99023;99115.7;;;;
2020/11/15 12:18:19;;;;;;;22.9;18;;;;;;;18.23;44.6543;99103.86;;;;
2020/11/15 12:28:19;;;;;;;18.5;16.6;;;;;;;18.17;45.19238;99093.54;;;;
2020/11/15 12:38:18;;;;;;;21.9;18.6;;;;;;;17.56;46.73926;99090.91;;;;
2020/11/15 12:48:18;;;;;;;22.1;19.6;;;;;;;17.29;47.62402;99073.24;;;;
2020/11/15 12:58:17;;;;;;;20.5;17.8;;;;;;;16.81;49.1875;99075.88;;;;
2020/11/15 13:08:17;;;;;;;20.1;16.3;;;;;;;16.43;50.02246;99067.9;;;;
2020/11/15 13:18:16;;;;;;;19.8;15.5;;;;;;;16.04;50.72656;99053.66;;;;
2020/11/15 13:28:16;;;;;;;22.7;17.8;;;;;;;15.35;51.00391;99049.75;;;;
2020/11/15 13:38:16;;;;;;;24.5;20.9;;;;;;;14.8;52.38672;99058.75;;;;
2020/11/15 13:48:14;;;;;;;23.9;20.4;;;;;;;14.09;53.71191;99047.47;;;;
2020/11/15 13:58:14;;;;;;;24;21.4;;;;;;;13.41;55.25098;99042.77;;;;
2020/11/15 14:08:12;;;;;;;26.3;22.1;;;;;;;12.82;57.86816;99046;;;;
2020/11/15 14:18:11;;;;;;;30.5;22.1;;;;;;;12.1;59.39063;99040.77;;;;
2020/11/15 14:28:10;;;;;;;24.7;22;;;;;;;11.44;61.67676;99036.8;;;;
2020/11/15 14:38:09;;;;;;;24.3;18.4;;;;;;;10.79;63.52148;99046.19;;;;
2020/11/15 14:48:09;;;;;;;29.6;21.6;;;;;;;10.07;65.21777;99049.22;;;;
2020/11/15 14:58:06;;;;;;;27.4;23.8;;;;;;;9.39;66.46973;99045.33;;;;
2020/11/15 15:08:05;;;;;;;29.2;25.1;;;;;;;8.69;69.02051;99041.54;;;;
2020/11/15 15:18:03;;;;;;;39.8;29.8;;;;;;;8.26;71.86621;99033.28;;;;
2020/11/15 16:19:18;;;;;;;28.2;19.8;;;;;;;22.76;43.88086;98995.99;;;;
2020/11/15 17:38:47;;;;;;;56.9;47.2;;;;;;;10.07;64.01953;98941.5;;;;
2020/11/15 17:48:45;;;;;;;70.2;54;;;;;;;8.5;69.4873;98972.39;;;;
2020/11/15 17:58:44;;;;;;;71.6;56.6;;;;;;;7.39;73.16797;98977.84;;;;
2020/11/15 18:08:42;;;;;;;80.9;68.5;;;;;;;6.43;75.51172;98967.47;;;;
2020/11/15 18:18:40;;;;;;;51.9;44.3;;;;;;;5.65;77.07031;98956.27;;;;
2020/11/15 18:28:38;;;;;;;65.2;55.1;;;;;;;5.12;80.03906;98935.3;;;;
2020/11/15 18:38:37;;;;;;;66.6;54.4;;;;;;;4.74;81.81348;98933.84;;;;
2020/11/15 18:48:35;;;;;;;56.4;49.5;;;;;;;4.41;82.11719;98927.81;;;;
2020/11/15 18:58:32;;;;;;;107.1;83.3;;;;;;;4.18;85.7666;98919.41;;;;
2020/11/15 19:08:31;;;;;;;110.4;83.3;;;;;;;4.04;85.99512;98916.39;;;;
2020/11/15 19:18:28;;;;;;;97.4;80.1;;;;;;;3.8;86.23438;98915.16;;;;
2020/11/15 19:28:26;;;;;;;106.4;82;;;;;;;3.69;86.7207;98908.13;;;;
2020/11/15 19:38:24;;;;;;;149.8;128.8;;;;;;;3.65;86.29297;98915.83;;;;
2020/11/15 19:48:22;;;;;;;139.7;113.4;;;;;;;3.62;86.69727;98911.02;;;;
2020/11/15 19:58:21;;;;;;;114.4;93.4;;;;;;;3.63;86.0459;98917.95;;;;
2020/11/15 20:08:17;;;;;;;104.1;85.7;;;;;;;3.63;86.22266;98907.3;;;;
2020/11/15 20:18:15;;;;;;;99.2;77.5;;;;;;;3.55;85.65332;98902.42;;;;
2020/11/15 20:28:13;;;;;;;100.4;73.9;;;;;;;3.39;85.78906;98882.86;;;;
2020/11/15 20:38:11;;;;;;;96.9;70;;;;;;;3.3;86.70996;98875.56;;;;
2020/11/15 20:48:09;;;;;;;103.3;82.7;;;;;;;3.11;86.27246;98884.98;;;;
2020/11/15 20:58:06;;;;;;;80.9;58.6;;;;;;;2.89;86.38379;98890.34;;;;
2020/11/15 21:08:04;;;;;;;84.8;67.6;;;;;;;2.69;87.48047;98892.78;;;;
2020/11/15 21:18:01;;;;;;;121.5;89.1;;;;;;;2.6;87.04395;98865.83;;;;
2020/11/15 21:27:59;;;;;;;90.7;67.3;;;;;;;2.56;88.94629;98851.41;;;;
2020/11/15 21:37:57;;;;;;;88.5;63.9;;;;;;;2.54;89.33984;98838.34;;;;
2020/11/15 21:47:55;;;;;;;66.3;47.9;;;;;;;2.57;88.65918;98804.33;;;;
2020/11/15 21:57:52;;;;;;;31.8;28.4;;;;;;;2.52;89.55469;98767.83;;;;
2020/11/15 22:07:50;;;;;;;84;54.5;;;;;;;2.87;87.66211;98792.13;;;;
2020/11/15 22:17:48;;;;;;;75.7;59.4;;;;;;;2.24;87.41113;98770.71;;;;
2020/11/15 22:27:45;;;;;;;65.8;49.3;;;;;;;2.05;87.75879;98772.88;;;;
2020/11/15 22:37:43;;;;;;;65;47.3;;;;;;;1.92;87.7998;98766.08;;;;
2020/11/15 22:47:41;;;;;;;70.6;50.5;;;;;;;1.74;87.09082;98753.09;;;;
2020/11/15 22:57:38;;;;;;;93.5;68.4;;;;;;;1.57;88.19043;98725.77;;;;
2020/11/15 23:07:36;;;;;;;56.7;50.5;;;;;;;1.43;87.66602;98711.24;;;;
2020/11/15 23:17:33;;;;;;;102.2;71.9;;;;;;;1.27;89.22852;98704.13;;;;
2020/11/15 23:27:31;;;;;;;58.4;46.9;;;;;;;1.22;87.97656;98691.58;;;;
2020/11/15 23:37:28;;;;;;;47.9;40.5;;;;;;;1.16;88.83008;98665.21;;;;
2020/11/15 23:47:26;;;;;;;52.5;35.4;;;;;;;1.14;88.82813;98654.86;;;;
2020/11/15 23:57:23;;;;;;;61.2;42;;;;;;;1.16;89.37988;98646.63;;;;
